Terminal Aerodrome Forecast
Issued by NWS

Home | Current Version | Previous Version | Text Only | Print | Product List | Glossary On
Versions: 1 2 3 4 5 6 7 8 9 10 11 12
586
FTUS45 KABQ 241741
TAFLVS
TAF
KLVS 241741Z 2418/2518 19010KT P6SM SCT100
     FM242000 24014G24KT P6SM SKC
     FM250130 30008KT P6SM SKC
     FM250600 02007KT P6SM SKC
     FM251100 02011G18KT P6SM SKC
     FM251400 03015G22KT P6SM SCT050=

USA.gov is the U.S. government's official web portal to all federal, state and local government web resources and services.